KRDR/RDR METAR and TAF weather

Enter ICAO airport designator
Station Type Date Time Source
KRDR METAR 2022/01/26 20:56 UTC NOAA

KRDR 262056Z 28023G31KT 10SM SCT150 SCT200 02/M02 A2950 RMK AO2A PK WND 28031/48 SLP013 T00191024 55014 $


Station Type Date Time Source
KRDR Decoded METAR 2022/01/26 20:56 UTC NOAA

Grand Forks Air Force Base, ND, United States (KRDR) 47-58N 097-24W 278M
Jan 26, 2022 - 03:56 PM EST / 2022.01.26 2056 UTC
Wind: from the W (280 degrees) at 26 MPH (23 KT) gusting to 36 MPH (31 KT):0
Visibility: 10 mile(s):0
Sky conditions: partly cloudy
Temperature: 35.4 F (1.9 C)
Dew Point: 27.7 F (-2.4 C)
Relative Humidity: 73%
Pressure (altimeter): 29.5 in. Hg (998 hPa)
Pressure tendency: 0.04 inches (1.4 hPa) lower than three hours ago
ob: KRDR 262056Z 28023G31KT 10SM SCT150 SCT200 02/M02 A2950 RMK AO2A PK WND 28031/48 SLP013 T00191024 55014
cycle: 21

Station Type Date Time Source
KRDR TAF 2022/01/26 19:54 UTC NOAA

TAF TAF
AMD KRDR 261940Z 2619/2724 25015G25KT 9999 FEW080 520009 QNH2950INS
BECMG 2622/2624 34010G20KT 9999 OVC020 620206 QNH2960INS
TEMPO 2701/2706 34020G30KT 9000 -SN 520009
BECMG 2708/2710 35012KT 9999 SCT025 QNH2999INS TX01/2623Z TNM16/2716Z

Example: see airport list